Terminal Aerodrome Forecast
Issued by NWS

Home | Current Version | Previous Version | Text Only | Print | Product List | Glossary On
Versions: 1 2 3 4 5 6 7 8 9 10 11 12 13 14 15 16 17 18 19 20 21 22 23 24 25 26 27 28 29 30
000
FTAK31 PAFA 152338
TAFAMC
TAF
PAMC 152338Z 1600/1624 28003KT P6SM VCSH SCT050 BKN120
     FM160700 VRB03KT P6SM -SHRA SCT025 BKN050 OVC100
     FM161100 VRB02KT P6SM -SHRA BKN020 OVC050
     FM161600 15003KT P6SM BKN035 BKN100
     FM162200 15004KT P6SM VCSH BKN050 BKN100=

USA.gov is the U.S. government's official web portal to all federal, state and local government web resources and services.